Royal, Tennessee
Current Conditions -  °F | °C
As of 12:15 PM on Friday 24 Oct 2014 (Local Time) from KSYI Reporting Station
Clear Clear  
Wind Chill: 64°   Ceiling: Unl
Heat Index: 64°   Visibility: 10mi
Dew Point: 45°   Wind: 5mph
Humidity: 49%   Direction: NA
Pressure: 30.13"   Gusts: NA
Location:  35.4645°N, 86.4889°W
Report Text: KSYI 241715Z AUTO VRB04KT 10SM CLR 18/07 A3013 RMK
Loading
Personal Weather Stations






























Interactive Weather Map
Tropical Storm Tracking
New forecast layout! Learn more

10-Day Weather Forecast

Advertisements
Track Severe Weather on mobile